createdAt,value
2022-08-03T00:01:21.404Z,36.10
2022-08-03T00:03:47.801Z,35.93
2022-08-03T00:06:14.210Z,36.16
2022-08-03T00:08:40.961Z,35.83
2022-08-03T00:11:07.356Z,36.35
2022-08-03T00:13:33.818Z,36.16
2022-08-03T00:16:00.335Z,36.43
2022-08-03T00:18:26.925Z,36.77
2022-08-03T00:20:53.431Z,36.56
2022-08-03T00:23:19.929Z,36.30
2022-08-03T00:25:46.497Z,36.18
2022-08-03T00:28:12.897Z,35.90
2022-08-03T00:30:40.351Z,36.29
2022-08-03T00:33:08.432Z,36.39
2022-08-03T00:35:50.177Z,36.68
2022-08-03T00:38:17.717Z,36.33
2022-08-03T00:40:44.170Z,36.15
2022-08-03T00:43:10.629Z,36.37
2022-08-03T00:45:37.113Z,36.32
2022-08-03T00:48:03.498Z,36.26
2022-08-03T00:50:29.945Z,36.38
2022-08-03T00:52:56.762Z,36.51
2022-08-03T00:55:23.215Z,36.69
2022-08-03T00:57:49.659Z,36.79
2022-08-03T01:00:16.246Z,36.85
2022-08-03T01:02:42.736Z,36.89
2022-08-03T01:05:09.268Z,36.30
2022-08-03T01:07:38.884Z,36.67
2022-08-03T01:10:05.496Z,36.71
2022-08-03T01:12:31.947Z,36.32
2022-08-03T01:15:00.016Z,36.58
2022-08-03T01:17:26.638Z,36.58
2022-08-03T01:19:53.167Z,36.41
2022-08-03T01:22:19.772Z,36.74
2022-08-03T01:24:51.188Z,36.75
2022-08-03T01:27:17.912Z,37.37
2022-08-03T01:29:44.487Z,36.87
2022-08-03T01:33:00.127Z,37.73
2022-08-03T01:34:57.502Z,36.95
2022-08-03T01:37:24.409Z,36.83
2022-08-03T01:39:50.927Z,36.35
2022-08-03T01:42:17.868Z,36.94
2022-08-03T01:44:44.593Z,36.84
2022-08-03T01:47:11.031Z,36.67
2022-08-03T01:49:37.599Z,36.61
2022-08-03T01:52:05.518Z,36.67
2022-08-03T01:54:32.285Z,37.11
2022-08-03T01:56:58.977Z,37.10
2022-08-03T01:59:25.431Z,36.66
2022-08-03T02:02:27.704Z,36.46
2022-08-03T02:04:38.589Z,36.35
2022-08-03T02:07:05.106Z,36.13
2022-08-03T02:09:31.645Z,36.75
2022-08-03T02:11:58.375Z,36.96
2022-08-03T02:14:24.913Z,36.71
2022-08-03T02:16:51.339Z,36.85
2022-08-03T02:19:17.849Z,37.14
2022-08-03T02:21:56.673Z,36.69
2022-08-03T02:24:27.729Z,36.54
2022-08-03T02:26:54.130Z,36.84
2022-08-03T02:29:20.594Z,37.01
2022-08-03T02:32:06.950Z,36.86
2022-08-03T02:34:33.447Z,36.86
2022-08-03T02:36:59.921Z,36.73
2022-08-03T02:39:26.650Z,36.69
2022-08-03T02:41:53.233Z,36.99
2022-08-03T02:44:19.898Z,36.71
2022-08-03T02:46:46.307Z,37.07
2022-08-03T02:49:40.995Z,37.17
2022-08-03T02:52:00.002Z,37.05
2022-08-03T02:54:26.427Z,36.77
2022-08-03T02:56:52.851Z,36.74
2022-08-03T02:59:22.093Z,36.89
2022-08-03T03:01:48.504Z,37.03
2022-08-03T03:04:14.870Z,37.13
2022-08-03T03:06:41.482Z,36.92
2022-08-03T03:09:09.490Z,36.99
2022-08-03T03:11:36.132Z,37.08
2022-08-03T03:14:02.654Z,37.11
2022-08-03T03:16:29.040Z,37.00
2022-08-03T03:18:55.700Z,37.76
2022-08-03T03:21:22.381Z,37.60
2022-08-03T03:23:48.951Z,37.15
2022-08-03T03:26:15.325Z,37.28
2022-08-03T03:28:42.109Z,37.23
2022-08-03T03:31:08.587Z,37.26
2022-08-03T03:33:35.227Z,36.96
2022-08-03T03:36:05.788Z,37.72
2022-08-03T03:38:32.270Z,37.52
2022-08-03T03:40:58.723Z,37.56
2022-08-03T03:43:25.276Z,37.82
2022-08-03T03:45:51.837Z,37.71
2022-08-03T03:48:18.224Z,37.50
2022-08-03T03:50:44.819Z,37.62
2022-08-03T03:53:11.363Z,37.70
2022-08-03T03:55:37.854Z,38.50
2022-08-03T03:58:24.896Z,38.13
2022-08-03T04:00:51.503Z,38.11
2022-08-03T04:03:17.940Z,38.64
2022-08-03T04:05:45.999Z,38.87
2022-08-03T04:08:12.546Z,38.45
2022-08-03T04:10:39.175Z,38.42
2022-08-03T04:13:05.895Z,37.63
2022-08-03T04:15:32.336Z,38.41
2022-08-03T04:17:58.770Z,37.70
2022-08-03T04:20:25.566Z,38.38
2022-08-03T04:22:52.310Z,37.58
2022-08-03T04:25:18.784Z,38.43
2022-08-03T04:27:45.254Z,38.15
2022-08-03T04:30:31.633Z,37.54
2022-08-03T04:32:58.347Z,37.41
2022-08-03T04:35:24.926Z,37.00
2022-08-03T04:38:11.456Z,36.77
2022-08-03T04:40:37.923Z,36.37
2022-08-03T04:43:04.350Z,36.38
2022-08-03T04:45:30.855Z,36.42
2022-08-03T04:47:57.253Z,36.26
2022-08-03T04:50:23.754Z,36.21
2022-08-03T04:52:50.592Z,36.37
2022-08-03T04:55:17.140Z,36.05
2022-08-03T04:57:43.606Z,36.43
2022-08-03T05:00:10.115Z,36.23
2022-08-03T05:02:36.536Z,36.39
2022-08-03T05:05:02.920Z,36.04
2022-08-03T05:07:35.704Z,35.91
2022-08-03T05:10:03.395Z,36.05
2022-08-03T05:12:32.743Z,36.09
2022-08-03T05:14:59.576Z,35.86
2022-08-03T05:17:25.969Z,35.95
2022-08-03T05:19:52.507Z,35.72
2022-08-03T05:22:18.940Z,36.01
2022-08-03T05:24:45.381Z,35.82
2022-08-03T05:27:13.051Z,35.96
2022-08-03T05:29:39.437Z,35.59
2022-08-03T05:32:08.307Z,35.57
2022-08-03T05:34:35.012Z,35.59
2022-08-03T05:37:01.445Z,35.80
2022-08-03T05:39:27.838Z,35.74
2022-08-03T05:41:54.285Z,35.62
2022-08-03T05:44:20.700Z,35.44
2022-08-03T05:46:47.147Z,35.39
2022-08-03T05:49:18.480Z,35.34
2022-08-03T05:51:44.977Z,35.61
2022-08-03T05:54:11.461Z,35.45
2022-08-03T05:56:37.924Z,35.46
2022-08-03T05:59:28.786Z,35.68
2022-08-03T06:01:50.988Z,35.62
2022-08-03T06:04:17.390Z,35.67
2022-08-03T06:06:43.734Z,35.64
2022-08-03T06:09:10.269Z,35.49
2022-08-03T06:11:36.636Z,35.54
2022-08-03T06:14:03.263Z,35.40
2022-08-03T06:16:29.757Z,35.67
2022-08-03T06:18:56.146Z,36.02
2022-08-03T06:21:22.588Z,35.97
2022-08-03T06:23:54.829Z,35.77
2022-08-03T06:26:21.904Z,35.63
2022-08-03T06:28:52.192Z,35.29
2022-08-03T06:31:20.275Z,35.27
2022-08-03T06:34:22.853Z,35.15
2022-08-03T06:36:33.194Z,35.24
2022-08-03T06:38:59.609Z,35.09
2022-08-03T06:41:26.004Z,35.20
2022-08-03T06:44:03.079Z,35.16
2022-08-03T06:46:30.831Z,35.44
2022-08-03T06:48:57.622Z,35.64
2022-08-03T06:52:04.594Z,35.63
2022-08-03T06:54:10.586Z,35.36
2022-08-03T06:56:36.962Z,35.64
2022-08-03T06:59:03.364Z,35.60
2022-08-03T07:01:29.888Z,35.30
2022-08-03T07:03:56.430Z,35.72
2022-08-03T07:06:22.825Z,35.14
2022-08-03T07:08:52.296Z,35.09
2022-08-03T07:11:20.133Z,35.40
2022-08-03T07:13:46.737Z,35.71
2022-08-03T07:16:13.270Z,35.44
2022-08-03T07:18:39.799Z,35.44
2022-08-03T07:21:06.245Z,35.59
2022-08-03T07:23:32.814Z,35.49
2022-08-03T07:26:06.924Z,35.46
2022-08-03T07:28:33.544Z,35.58
2022-08-03T07:31:00.010Z,35.43
2022-08-03T07:33:26.485Z,35.60
2022-08-03T07:35:52.949Z,35.38
2022-08-03T07:38:21.212Z,35.52
2022-08-03T07:40:47.751Z,35.02
2022-08-03T07:43:14.503Z,34.61
2022-08-03T07:45:40.989Z,35.52
2022-08-03T07:48:11.773Z,34.70
2022-08-03T07:50:39.197Z,35.00
2022-08-03T07:53:05.738Z,34.69
2022-08-03T07:55:32.290Z,34.91
2022-08-03T07:57:58.925Z,33.95
2022-08-03T08:00:25.843Z,35.12
2022-08-03T08:02:52.798Z,35.12
2022-08-03T08:05:19.472Z,35.12
2022-08-03T08:07:51.468Z,35.14
2022-08-03T08:10:18.318Z,35.07
2022-08-03T08:12:44.797Z,35.30
2022-08-03T08:15:11.262Z,34.61
2022-08-03T08:17:37.678Z,35.34
2022-08-03T08:20:05.071Z,33.38
2022-08-03T08:22:32.434Z,33.03
2022-08-03T08:24:59.320Z,33.32
2022-08-03T08:27:26.118Z,31.66
2022-08-03T08:29:54.609Z,31.82
2022-08-03T08:32:23.967Z,32.34
2022-08-03T08:34:50.514Z,32.38
2022-08-03T08:37:16.926Z,31.69
2022-08-03T08:39:43.350Z,31.75
2022-08-03T08:42:09.928Z,31.72
2022-08-03T08:44:36.387Z,31.54
2022-08-03T08:47:02.802Z,31.20
2022-08-03T08:49:29.376Z,30.99
2022-08-03T08:52:00.787Z,30.95
2022-08-03T08:54:27.719Z,31.46
2022-08-03T08:56:54.317Z,31.32
2022-08-03T08:59:20.700Z,31.29
2022-08-03T09:01:47.130Z,30.65
2022-08-03T09:04:13.633Z,30.97
2022-08-03T09:06:40.049Z,30.96
2022-08-03T09:09:06.477Z,30.37
2022-08-03T09:11:52.396Z,30.49
2022-08-03T09:14:34.101Z,29.39
2022-08-03T09:17:05.879Z,30.61
2022-08-03T09:19:32.257Z,31.03
2022-08-03T09:21:58.642Z,30.75
2022-08-03T09:24:40.566Z,30.88
2022-08-03T09:27:08.182Z,31.45
2022-08-03T09:29:34.805Z,30.96
2022-08-03T09:32:01.230Z,30.50
2022-08-03T09:34:27.660Z,30.63
2022-08-03T09:36:54.231Z,30.50
2022-08-03T09:39:28.626Z,30.17
2022-08-03T09:42:07.078Z,30.37
2022-08-03T09:44:33.501Z,30.69
2022-08-03T09:46:59.916Z,30.50
2022-08-03T09:49:26.451Z,30.07
2022-08-03T09:52:37.760Z,29.69
2022-08-03T09:54:39.484Z,29.26
2022-08-03T09:57:05.912Z,29.17
2022-08-03T09:59:32.298Z,30.06
2022-08-03T10:02:00.495Z,29.32
2022-08-03T10:04:26.959Z,29.65
2022-08-03T10:06:53.423Z,30.25
2022-08-03T10:09:20.379Z,30.39
2022-08-03T10:11:46.862Z,30.33
2022-08-03T10:14:13.418Z,29.98
2022-08-03T10:16:40.000Z,28.76
2022-08-03T10:19:06.465Z,28.28
2022-08-03T10:21:32.915Z,27.87
2022-08-03T10:23:59.504Z,29.37
2022-08-03T10:26:26.008Z,28.55
2022-08-03T10:28:52.432Z,27.94
2022-08-03T10:31:19.218Z,28.41
2022-08-03T10:33:50.668Z,28.17
2022-08-03T10:36:19.496Z,26.82
2022-08-03T10:38:45.924Z,26.58
2022-08-03T10:41:12.350Z,25.96
2022-08-03T10:43:38.966Z,26.45
2022-08-03T10:46:05.422Z,24.90
2022-08-03T10:48:31.906Z,26.17
2022-08-03T10:50:58.336Z,25.70
2022-08-03T10:53:24.840Z,23.71
2022-08-03T10:55:51.245Z,25.15
2022-08-03T10:58:30.475Z,25.71
2022-08-03T11:00:57.395Z,23.46
2022-08-03T11:03:24.942Z,24.18
2022-08-03T11:05:51.452Z,24.31
2022-08-03T11:08:17.938Z,23.63
2022-08-03T11:10:45.205Z,23.86
2022-08-03T11:13:11.628Z,24.52
2022-08-03T11:15:43.284Z,24.03
2022-08-03T11:18:11.191Z,24.22
2022-08-03T11:20:37.945Z,23.85
2022-08-03T11:23:04.433Z,23.70
2022-08-03T11:25:53.239Z,24.28
2022-08-03T11:28:17.842Z,24.44
2022-08-03T11:30:46.919Z,24.49
2022-08-03T11:33:17.550Z,24.69
2022-08-03T11:35:44.005Z,24.98
2022-08-03T11:38:10.715Z,24.37
2022-08-03T11:40:37.360Z,24.34
2022-08-03T11:43:03.827Z,24.96
2022-08-03T11:45:30.610Z,24.35
2022-08-03T11:47:57.080Z,23.14
2022-08-03T11:50:24.115Z,24.67
2022-08-03T11:52:50.816Z,24.87
2022-08-03T11:55:17.383Z,23.47
2022-08-03T11:59:09.311Z,23.12
2022-08-03T12:00:30.471Z,23.22
2022-08-03T12:02:57.049Z,23.56
2022-08-03T12:05:23.498Z,22.73
2022-08-03T12:08:03.357Z,22.72
2022-08-03T12:10:32.861Z,23.53
2022-08-03T12:12:59.345Z,23.53
2022-08-03T12:15:25.760Z,23.59
2022-08-03T12:17:57.400Z,23.08
2022-08-03T12:20:34.736Z,23.05
2022-08-03T12:23:01.716Z,22.07
2022-08-03T12:25:39.187Z,22.66
2022-08-03T12:28:06.316Z,24.07
2022-08-03T12:30:55.618Z,23.30
2022-08-03T12:33:22.148Z,23.50
2022-08-03T12:35:52.220Z,23.93
2022-08-03T12:38:19.502Z,23.34
2022-08-03T12:40:45.903Z,22.48
2022-08-03T12:43:12.278Z,21.67
2022-08-03T12:45:38.839Z,22.83
2022-08-03T12:48:05.344Z,22.66
2022-08-03T12:50:32.102Z,22.19
2022-08-03T12:52:58.817Z,23.34
2022-08-03T12:55:25.254Z,21.61
2022-08-03T12:57:51.692Z,23.15
2022-08-03T13:00:21.544Z,23.06
2022-08-03T13:03:26.693Z,22.47
2022-08-03T13:05:42.231Z,23.48
2022-08-03T13:08:08.650Z,23.63
2022-08-03T13:10:37.908Z,22.37
2022-08-03T13:13:04.420Z,22.55
2022-08-03T13:15:33.513Z,22.67
2022-08-03T13:18:17.255Z,21.41
2022-08-03T13:20:44.144Z,22.03
2022-08-03T13:23:13.006Z,22.22
2022-08-03T13:25:55.819Z,22.09
2022-08-03T13:28:22.581Z,22.01
2022-08-03T13:30:49.174Z,22.73
2022-08-03T13:33:15.611Z,22.11
2022-08-03T13:35:41.999Z,21.59
2022-08-03T13:38:08.822Z,19.46
2022-08-03T13:40:41.572Z,20.73
2022-08-03T13:43:08.327Z,19.64
2022-08-03T13:45:35.148Z,21.75
2022-08-03T13:48:01.566Z,22.08
2022-08-03T13:50:27.995Z,20.62
2022-08-03T13:52:54.607Z,20.41
2022-08-03T13:55:20.995Z,20.82
2022-08-03T13:58:03.859Z,20.57
2022-08-03T14:00:33.422Z,20.54
2022-08-03T14:03:13.639Z,21.54
2022-08-03T14:05:40.921Z,21.69
2022-08-03T14:08:07.415Z,22.09
2022-08-03T14:10:33.912Z,20.47
2022-08-03T14:13:00.565Z,20.14
2022-08-03T14:15:27.315Z,20.18
2022-08-03T14:17:53.914Z,19.24
2022-08-03T14:20:37.861Z,19.92
2022-08-03T14:23:06.055Z,19.62
2022-08-03T14:25:43.157Z,19.26
2022-08-03T14:28:11.658Z,20.65
2022-08-03T14:30:38.219Z,20.26
2022-08-03T14:33:04.611Z,19.76
2022-08-03T14:35:31.040Z,18.60
2022-08-03T14:37:57.532Z,17.88
2022-08-03T14:40:24.019Z,19.57
2022-08-03T14:42:50.457Z,19.87
2022-08-03T14:45:20.501Z,18.80
2022-08-03T14:50:10.423Z,19.69
2022-08-03T14:50:42.892Z,18.60
2022-08-03T14:53:10.771Z,18.70
2022-08-03T14:55:38.947Z,18.63
2022-08-03T14:58:19.647Z,18.89
2022-08-03T15:00:47.843Z,19.49
2022-08-03T15:03:16.702Z,19.05
2022-08-03T15:05:43.732Z,17.81
2022-08-03T15:08:16.449Z,18.53
2022-08-03T15:10:44.359Z,18.10
2022-08-03T15:13:11.121Z,17.81
2022-08-03T15:15:37.514Z,18.34
2022-08-03T15:18:03.994Z,19.05
2022-08-03T15:20:43.004Z,17.05
2022-08-03T15:23:10.214Z,17.89
2022-08-03T15:26:29.552Z,18.83
2022-08-03T15:28:23.102Z,19.58
2022-08-03T15:30:49.475Z,19.07
2022-08-03T15:33:15.946Z,18.55
2022-08-03T15:35:42.382Z,17.66
2022-08-03T15:38:09.708Z,18.15
2022-08-03T15:40:36.364Z,18.67
2022-08-03T15:43:02.811Z,17.95
2022-08-03T15:45:29.221Z,15.53
2022-08-03T15:48:02.981Z,17.37
2022-08-03T15:50:29.378Z,17.71
2022-08-03T15:52:55.818Z,18.16
2022-08-03T15:55:22.671Z,18.69
2022-08-03T15:59:12.707Z,18.55
2022-08-03T16:00:35.615Z,18.47
2022-08-03T16:03:02.097Z,18.59
2022-08-03T16:05:28.473Z,19.06
2022-08-03T16:10:45.739Z,19.15
2022-08-03T16:13:12.213Z,19.01
2022-08-03T16:15:38.899Z,17.88
2022-08-03T16:18:05.879Z,18.82
2022-08-03T16:20:34.199Z,18.68
2022-08-03T16:23:10.575Z,18.76
2022-08-03T16:25:38.546Z,18.42
2022-08-03T16:28:08.265Z,18.14
2022-08-03T16:30:40.219Z,17.61
2022-08-03T16:33:06.718Z,17.42
2022-08-03T16:35:33.207Z,17.70
2022-08-03T16:38:00.714Z,17.94
2022-08-03T16:40:31.581Z,17.32
2022-08-03T16:42:59.061Z,17.26
2022-08-03T16:45:25.731Z,17.27
2022-08-03T16:48:01.593Z,17.31
2022-08-03T16:50:31.873Z,17.21
2022-08-03T16:52:58.369Z,15.75
2022-08-03T16:55:43.455Z,16.84
2022-08-03T16:58:15.713Z,17.48
2022-08-03T17:00:46.332Z,17.44
2022-08-03T17:03:20.633Z,17.36
2022-08-03T17:05:51.018Z,16.04
2022-08-03T17:08:27.232Z,17.89
2022-08-03T17:10:53.812Z,17.59
2022-08-03T17:13:21.573Z,17.74
2022-08-03T17:15:57.967Z,17.67
2022-08-03T17:18:25.177Z,17.56
2022-08-03T17:20:52.077Z,17.92
2022-08-03T17:23:35.311Z,17.85
2022-08-03T17:26:04.164Z,17.84
2022-08-03T17:28:50.237Z,18.01
2022-08-03T17:31:23.040Z,17.89
2022-08-03T17:33:57.557Z,17.78
2022-08-03T17:36:32.965Z,17.72
2022-08-03T17:39:08.772Z,17.80
2022-08-03T17:41:35.629Z,17.41
2022-08-03T17:44:15.294Z,18.12
2022-08-03T17:46:48.744Z,18.08
2022-08-03T17:49:24.724Z,18.06
2022-08-03T17:51:53.103Z,18.10
2022-08-03T17:54:20.203Z,18.10
2022-08-03T17:56:46.812Z,18.18
2022-08-03T17:59:13.647Z,18.40
2022-08-03T18:01:58.287Z,18.41
2022-08-03T18:04:29.635Z,18.36
2022-08-03T18:06:58.203Z,18.49
2022-08-03T18:10:04.143Z,18.52
2022-08-03T18:12:12.382Z,18.62
2022-08-03T18:14:39.561Z,18.75
2022-08-03T18:17:06.052Z,19.09
2022-08-03T18:20:03.585Z,19.24
2022-08-03T18:22:25.254Z,19.95
2022-08-03T18:24:52.400Z,20.71
2022-08-03T18:27:19.518Z,20.97
2022-08-03T18:29:46.461Z,20.68
2022-08-03T18:32:17.180Z,20.71
2022-08-03T18:34:53.613Z,20.92
2022-08-03T18:37:24.753Z,21.08
2022-08-03T18:39:52.955Z,20.96
2022-08-03T18:42:25.618Z,21.35
2022-08-03T18:44:56.500Z,21.42
2022-08-03T18:47:23.392Z,21.37
2022-08-03T18:49:52.216Z,21.41
2022-08-03T18:52:20.042Z,21.41
2022-08-03T18:55:01.168Z,21.49
2022-08-03T18:57:34.779Z,21.32
2022-08-03T19:00:05.034Z,21.51
2022-08-03T19:02:31.684Z,21.82
2022-08-03T19:04:58.382Z,22.06
2022-08-03T19:07:25.111Z,22.46
2022-08-03T19:09:52.123Z,22.25
2022-08-03T19:12:28.106Z,22.31
2022-08-03T19:14:59.064Z,22.85
2022-08-03T19:17:29.403Z,22.54
2022-08-03T19:19:56.267Z,22.28
2022-08-03T19:22:23.209Z,22.68
2022-08-03T19:24:50.249Z,22.65
2022-08-03T19:27:18.021Z,22.84
2022-08-03T19:29:59.003Z,22.95
2022-08-03T19:32:27.361Z,22.59
2022-08-03T19:34:54.233Z,23.10
2022-08-03T19:37:22.545Z,22.68
2022-08-03T19:39:56.605Z,23.34
2022-08-03T19:42:23.818Z,23.46
2022-08-03T19:44:55.754Z,23.72
2022-08-03T19:47:25.612Z,23.53
2022-08-03T19:50:06.001Z,22.82
2022-08-03T19:52:37.289Z,23.79
2022-08-03T19:55:04.267Z,23.78
2022-08-03T19:57:32.303Z,23.53
2022-08-03T19:59:58.771Z,23.10
2022-08-03T20:02:30.456Z,23.82
2022-08-03T20:04:59.848Z,23.56
2022-08-03T20:07:26.981Z,23.60
2022-08-03T20:09:57.008Z,23.39
2022-08-03T20:12:27.691Z,24.25
2022-08-03T20:14:56.249Z,24.09
2022-08-03T20:17:54.648Z,24.06
2022-08-03T20:20:12.074Z,24.00
2022-08-03T20:22:39.104Z,24.28
2022-08-03T20:25:07.393Z,24.11
2022-08-03T20:28:07.203Z,24.43
2022-08-03T20:30:26.406Z,24.36
2022-08-03T20:32:53.947Z,24.51
2022-08-03T20:35:20.772Z,24.42
2022-08-03T20:37:47.474Z,24.45
2022-08-03T20:40:14.272Z,24.85
2022-08-03T20:42:40.701Z,25.08
2022-08-03T20:45:13.839Z,25.11
2022-08-03T20:47:50.590Z,24.97
2022-08-03T20:50:17.700Z,24.60
2022-08-03T20:52:49.797Z,24.99
2022-08-03T20:55:16.570Z,25.18
2022-08-03T20:57:43.423Z,24.93
2022-08-03T21:00:15.836Z,24.94
2022-08-03T21:02:42.374Z,24.68
2022-08-03T21:05:09.412Z,24.70
2022-08-03T21:08:04.277Z,24.62
2022-08-03T21:10:28.666Z,25.02
2022-08-03T21:13:13.662Z,25.34
2022-08-03T21:16:13.032Z,25.22
2022-08-03T21:18:28.755Z,25.10
2022-08-03T21:20:55.758Z,25.11
2022-08-03T21:23:40.269Z,25.16
2022-08-03T21:26:10.261Z,25.03
2022-08-03T21:28:36.829Z,25.23
2022-08-03T21:31:04.389Z,25.42
2022-08-03T21:33:31.341Z,25.41
2022-08-03T21:35:58.914Z,25.82
2022-08-03T21:38:29.893Z,25.78
2022-08-03T21:40:57.965Z,25.53
2022-08-03T21:43:24.503Z,25.63
2022-08-03T21:45:50.990Z,25.33
2022-08-03T21:48:17.635Z,24.98
2022-08-03T21:50:45.128Z,25.53
2022-08-03T21:53:11.741Z,25.26
2022-08-03T21:55:38.496Z,25.36
2022-08-03T21:58:06.368Z,25.91
2022-08-03T22:00:32.970Z,26.20
2022-08-03T22:02:59.608Z,26.73
2022-08-03T22:05:43.522Z,25.75
2022-08-03T22:08:10.733Z,25.95
2022-08-03T22:10:37.401Z,25.86
2022-08-03T22:13:04.065Z,25.48
2022-08-03T22:15:30.925Z,25.83
2022-08-03T22:17:57.558Z,25.92
2022-08-03T22:20:26.595Z,25.69
2022-08-03T22:22:55.325Z,25.52
2022-08-03T22:25:22.704Z,25.71
2022-08-03T22:27:49.784Z,26.00
2022-08-03T22:30:16.424Z,25.88
2022-08-03T22:32:42.870Z,25.89
2022-08-03T22:35:09.327Z,25.93
2022-08-03T22:37:43.541Z,26.11
2022-08-03T22:40:10.305Z,25.88
2022-08-03T22:42:36.851Z,25.52
2022-08-03T22:45:03.285Z,25.64
2022-08-03T22:47:29.726Z,25.74
2022-08-03T22:50:31.879Z,25.70
2022-08-03T22:52:42.684Z,25.90
2022-08-03T22:55:09.388Z,25.95
2022-08-03T22:57:36.229Z,25.68
2022-08-03T23:00:02.874Z,26.08
2022-08-03T23:02:29.415Z,26.54
2022-08-03T23:04:55.921Z,26.08
2022-08-03T23:07:22.773Z,26.50
2022-08-03T23:09:50.013Z,25.94
2022-08-03T23:12:16.552Z,26.44
2022-08-03T23:14:43.012Z,26.56
2022-08-03T23:17:09.681Z,26.35
2022-08-03T23:19:41.567Z,26.14
2022-08-03T23:22:17.086Z,26.10
2022-08-03T23:24:57.814Z,26.75
2022-08-03T23:27:24.435Z,26.73
2022-08-03T23:29:50.980Z,26.56
2022-08-03T23:32:17.446Z,27.14
2022-08-03T23:34:44.168Z,26.63
2022-08-03T23:37:10.605Z,26.50
2022-08-03T23:39:37.123Z,26.14
2022-08-03T23:42:04.938Z,26.55
2022-08-03T23:44:33.742Z,26.78
2022-08-03T23:47:00.230Z,26.92
2022-08-03T23:49:26.773Z,26.38
2022-08-03T23:51:53.348Z,26.61
2022-08-03T23:54:19.810Z,26.71
2022-08-03T23:56:46.760Z,26.85
2022-08-03T23:59:13.425Z,26.61
